sensor_id;sensor_type;location;lat;lon;timestamp;P1;durP1;ratioP1;P2;durP2;ratioP2
8871;SDS011;4472;52.092;9.820;2022-12-20T00:02:08;26.27;;;15.60;;
8871;SDS011;4472;52.092;9.820;2022-12-20T00:04:57;23.83;;;15.40;;
8871;SDS011;4472;52.092;9.820;2022-12-20T00:07:45;21.67;;;14.37;;
8871;SDS011;4472;52.092;9.820;2022-12-20T00:10:34;24.83;;;15.57;;
8871;SDS011;4472;52.092;9.820;2022-12-20T00:13:22;22.40;;;14.20;;
8871;SDS011;4472;52.092;9.820;2022-12-20T00:16:10;23.70;;;14.33;;
8871;SDS011;4472;52.092;9.820;2022-12-20T00:19:00;24.30;;;14.50;;
8871;SDS011;4472;52.092;9.820;2022-12-20T00:21:49;20.80;;;13.93;;
8871;SDS011;4472;52.092;9.820;2022-12-20T00:24:36;19.80;;;13.50;;
8871;SDS011;4472;52.092;9.820;2022-12-20T00:27:24;21.83;;;14.57;;
8871;SDS011;4472;52.092;9.820;2022-12-20T00:30:12;21.17;;;13.70;;
8871;SDS011;4472;52.092;9.820;2022-12-20T00:32:59;19.27;;;13.00;;
8871;SDS011;4472;52.092;9.820;2022-12-20T00:35:47;21.83;;;13.73;;
8871;SDS011;4472;52.092;9.820;2022-12-20T00:38:36;20.70;;;13.07;;
8871;SDS011;4472;52.092;9.820;2022-12-20T00:41:24;22.47;;;13.87;;
8871;SDS011;4472;52.092;9.820;2022-12-20T00:44:12;23.93;;;14.17;;
8871;SDS011;4472;52.092;9.820;2022-12-20T00:46:59;24.43;;;14.37;;
8871;SDS011;4472;52.092;9.820;2022-12-20T00:49:47;22.60;;;13.87;;
8871;SDS011;4472;52.092;9.820;2022-12-20T00:52:34;18.87;;;12.87;;
8871;SDS011;4472;52.092;9.820;2022-12-20T00:55:23;22.17;;;13.90;;
8871;SDS011;4472;52.092;9.820;2022-12-20T00:58:11;22.27;;;13.97;;
8871;SDS011;4472;52.092;9.820;2022-12-20T01:00:58;21.93;;;14.53;;
8871;SDS011;4472;52.092;9.820;2022-12-20T01:03:46;21.83;;;13.60;;
8871;SDS011;4472;52.092;9.820;2022-12-20T01:06:33;21.20;;;13.83;;
8871;SDS011;4472;52.092;9.820;2022-12-20T01:09:21;22.17;;;13.70;;
8871;SDS011;4472;52.092;9.820;2022-12-20T01:12:09;26.03;;;15.37;;
8871;SDS011;4472;52.092;9.820;2022-12-20T01:14:57;20.93;;;13.90;;
8871;SDS011;4472;52.092;9.820;2022-12-20T01:17:44;26.57;;;14.33;;
8871;SDS011;4472;52.092;9.820;2022-12-20T01:20:32;21.17;;;14.50;;
8871;SDS011;4472;52.092;9.820;2022-12-20T01:23:20;24.27;;;14.07;;
8871;SDS011;4472;52.092;9.820;2022-12-20T01:26:09;23.97;;;14.93;;
8871;SDS011;4472;52.092;9.820;2022-12-20T01:28:59;22.23;;;14.37;;
8871;SDS011;4472;52.092;9.820;2022-12-20T01:31:46;19.70;;;12.50;;
8871;SDS011;4472;52.092;9.820;2022-12-20T01:34:34;17.10;;;11.43;;
8871;SDS011;4472;52.092;9.820;2022-12-20T01:37:21;19.27;;;11.87;;
8871;SDS011;4472;52.092;9.820;2022-12-20T01:40:09;21.57;;;13.50;;
8871;SDS011;4472;52.092;9.820;2022-12-20T01:42:57;22.37;;;14.67;;
8871;SDS011;4472;52.092;9.820;2022-12-20T01:45:45;24.17;;;14.60;;
8871;SDS011;4472;52.092;9.820;2022-12-20T01:48:34;20.17;;;13.23;;
8871;SDS011;4472;52.092;9.820;2022-12-20T01:51:22;23.17;;;13.20;;
8871;SDS011;4472;52.092;9.820;2022-12-20T01:54:11;18.80;;;13.30;;
8871;SDS011;4472;52.092;9.820;2022-12-20T01:57:01;18.67;;;13.27;;
8871;SDS011;4472;52.092;9.820;2022-12-20T01:59:49;23.47;;;14.20;;
8871;SDS011;4472;52.092;9.820;2022-12-20T02:02:39;23.23;;;13.87;;
8871;SDS011;4472;52.092;9.820;2022-12-20T02:05:28;23.10;;;14.03;;
8871;SDS011;4472;52.092;9.820;2022-12-20T02:08:19;21.00;;;13.53;;
8871;SDS011;4472;52.092;9.820;2022-12-20T02:11:08;17.80;;;12.60;;
8871;SDS011;4472;52.092;9.820;2022-12-20T02:14:01;19.20;;;12.43;;
8871;SDS011;4472;52.092;9.820;2022-12-20T02:16:52;19.67;;;13.50;;
8871;SDS011;4472;52.092;9.820;2022-12-20T02:19:53;19.53;;;11.97;;
8871;SDS011;4472;52.092;9.820;2022-12-20T02:22:51;19.47;;;12.80;;
8871;SDS011;4472;52.092;9.820;2022-12-20T02:25:45;23.60;;;13.07;;
8871;SDS011;4472;52.092;9.820;2022-12-20T02:28:40;23.83;;;12.90;;
8871;SDS011;4472;52.092;9.820;2022-12-20T02:31:37;21.27;;;12.73;;
8871;SDS011;4472;52.092;9.820;2022-12-20T02:34:26;18.30;;;12.03;;
8871;SDS011;4472;52.092;9.820;2022-12-20T02:37:15;17.63;;;12.20;;
8871;SDS011;4472;52.092;9.820;2022-12-20T02:40:06;18.93;;;12.03;;
8871;SDS011;4472;52.092;9.820;2022-12-20T02:42:55;21.57;;;13.43;;
8871;SDS011;4472;52.092;9.820;2022-12-20T02:45:44;18.10;;;12.10;;
8871;SDS011;4472;52.092;9.820;2022-12-20T02:48:32;17.73;;;11.97;;
8871;SDS011;4472;52.092;9.820;2022-12-20T02:51:21;18.17;;;12.20;;
8871;SDS011;4472;52.092;9.820;2022-12-20T02:54:09;22.63;;;13.10;;
8871;SDS011;4472;52.092;9.820;2022-12-20T02:56:59;17.90;;;12.20;;
8871;SDS011;4472;52.092;9.820;2022-12-20T02:59:49;19.27;;;12.50;;
8871;SDS011;4472;52.092;9.820;2022-12-20T03:02:42;16.53;;;11.17;;
8871;SDS011;4472;52.092;9.820;2022-12-20T03:05:49;17.73;;;11.97;;
8871;SDS011;4472;52.092;9.820;2022-12-20T03:08:37;19.40;;;12.00;;
8871;SDS011;4472;52.092;9.820;2022-12-20T03:11:25;18.77;;;12.80;;
8871;SDS011;4472;52.092;9.820;2022-12-20T03:17:22;17.23;;;11.77;;
8871;SDS011;4472;52.092;9.820;2022-12-20T03:20:09;18.00;;;11.60;;
8871;SDS011;4472;52.092;9.820;2022-12-20T03:22:58;18.00;;;11.90;;
8871;SDS011;4472;52.092;9.820;2022-12-20T03:25:46;18.60;;;11.90;;
8871;SDS011;4472;52.092;9.820;2022-12-20T03:28:33;18.70;;;12.27;;
8871;SDS011;4472;52.092;9.820;2022-12-20T03:31:21;19.67;;;12.60;;
8871;SDS011;4472;52.092;9.820;2022-12-20T03:34:08;21.23;;;13.17;;
8871;SDS011;4472;52.092;9.820;2022-12-20T03:36:56;21.40;;;12.77;;
8871;SDS011;4472;52.092;9.820;2022-12-20T03:39:44;21.70;;;12.33;;
8871;SDS011;4472;52.092;9.820;2022-12-20T03:42:32;15.30;;;11.50;;
8871;SDS011;4472;52.092;9.820;2022-12-20T03:45:20;20.60;;;12.73;;
8871;SDS011;4472;52.092;9.820;2022-12-20T03:48:07;18.50;;;12.17;;
8871;SDS011;4472;52.092;9.820;2022-12-20T03:50:54;19.80;;;12.67;;
8871;SDS011;4472;52.092;9.820;2022-12-20T03:53:42;20.43;;;13.23;;
8871;SDS011;4472;52.092;9.820;2022-12-20T03:56:31;17.57;;;12.13;;
8871;SDS011;4472;52.092;9.820;2022-12-20T03:59:18;18.67;;;11.93;;
8871;SDS011;4472;52.092;9.820;2022-12-20T04:02:06;20.83;;;13.37;;
8871;SDS011;4472;52.092;9.820;2022-12-20T04:04:53;17.93;;;12.57;;
8871;SDS011;4472;52.092;9.820;2022-12-20T04:07:41;19.53;;;11.47;;
8871;SDS011;4472;52.092;9.820;2022-12-20T04:10:29;16.20;;;11.87;;
8871;SDS011;4472;52.092;9.820;2022-12-20T04:13:18;19.57;;;12.00;;
8871;SDS011;4472;52.092;9.820;2022-12-20T04:16:06;18.87;;;11.33;;
8871;SDS011;4472;52.092;9.820;2022-12-20T04:18:54;21.00;;;12.13;;
8871;SDS011;4472;52.092;9.820;2022-12-20T04:21:41;18.00;;;11.30;;
8871;SDS011;4472;52.092;9.820;2022-12-20T04:24:29;16.33;;;11.07;;
8871;SDS011;4472;52.092;9.820;2022-12-20T04:27:16;15.87;;;10.97;;
8871;SDS011;4472;52.092;9.820;2022-12-20T04:30:06;19.20;;;11.23;;
8871;SDS011;4472;52.092;9.820;2022-12-20T04:32:53;17.57;;;12.07;;
8871;SDS011;4472;52.092;9.820;2022-12-20T04:35:41;15.43;;;11.03;;
8871;SDS011;4472;52.092;9.820;2022-12-20T04:38:28;18.13;;;10.50;;
8871;SDS011;4472;52.092;9.820;2022-12-20T04:41:16;17.50;;;10.60;;
8871;SDS011;4472;52.092;9.820;2022-12-20T04:44:07;16.63;;;10.73;;
8871;SDS011;4472;52.092;9.820;2022-12-20T04:46:56;15.83;;;10.77;;
8871;SDS011;4472;52.092;9.820;2022-12-20T04:49:43;17.13;;;10.97;;
8871;SDS011;4472;52.092;9.820;2022-12-20T04:52:31;15.10;;;9.80;;
8871;SDS011;4472;52.092;9.820;2022-12-20T04:55:36;14.97;;;10.63;;
8871;SDS011;4472;52.092;9.820;2022-12-20T04:58:24;14.67;;;10.80;;
8871;SDS011;4472;52.092;9.820;2022-12-20T05:01:12;16.33;;;11.37;;
8871;SDS011;4472;52.092;9.820;2022-12-20T05:04:00;15.97;;;11.23;;
8871;SDS011;4472;52.092;9.820;2022-12-20T05:06:48;17.17;;;11.03;;
8871;SDS011;4472;52.092;9.820;2022-12-20T05:09:35;19.37;;;11.10;;
8871;SDS011;4472;52.092;9.820;2022-12-20T05:12:23;16.27;;;10.93;;
8871;SDS011;4472;52.092;9.820;2022-12-20T05:15:10;16.80;;;11.23;;
8871;SDS011;4472;52.092;9.820;2022-12-20T05:17:58;16.33;;;10.77;;
8871;SDS011;4472;52.092;9.820;2022-12-20T05:20:47;16.77;;;11.33;;
8871;SDS011;4472;52.092;9.820;2022-12-20T05:23:55;18.07;;;11.70;;
8871;SDS011;4472;52.092;9.820;2022-12-20T05:27:01;15.30;;;11.43;;
8871;SDS011;4472;52.092;9.820;2022-12-20T05:29:48;19.13;;;11.60;;
8871;SDS011;4472;52.092;9.820;2022-12-20T05:32:35;19.53;;;12.20;;
8871;SDS011;4472;52.092;9.820;2022-12-20T05:35:23;18.60;;;11.70;;
8871;SDS011;4472;52.092;9.820;2022-12-20T05:38:12;18.60;;;11.67;;
8871;SDS011;4472;52.092;9.820;2022-12-20T05:40:59;16.73;;;11.90;;
8871;SDS011;4472;52.092;9.820;2022-12-20T05:43:49;18.73;;;11.33;;
8871;SDS011;4472;52.092;9.820;2022-12-20T05:46:36;20.13;;;12.77;;
8871;SDS011;4472;52.092;9.820;2022-12-20T05:49:24;18.73;;;12.23;;
8871;SDS011;4472;52.092;9.820;2022-12-20T05:52:11;18.23;;;12.67;;
8871;SDS011;4472;52.092;9.820;2022-12-20T05:55:00;18.87;;;11.73;;
8871;SDS011;4472;52.092;9.820;2022-12-20T05:57:47;17.77;;;11.57;;
8871;SDS011;4472;52.092;9.820;2022-12-20T06:00:35;21.47;;;13.17;;
8871;SDS011;4472;52.092;9.820;2022-12-20T06:03:22;20.93;;;13.10;;
8871;SDS011;4472;52.092;9.820;2022-12-20T06:06:10;19.63;;;13.70;;
8871;SDS011;4472;52.092;9.820;2022-12-20T06:08:58;18.07;;;12.37;;
8871;SDS011;4472;52.092;9.820;2022-12-20T06:11:47;16.23;;;12.10;;
8871;SDS011;4472;52.092;9.820;2022-12-20T06:14:34;17.80;;;11.80;;
8871;SDS011;4472;52.092;9.820;2022-12-20T06:17:22;20.20;;;12.27;;
8871;SDS011;4472;52.092;9.820;2022-12-20T06:20:09;17.13;;;11.60;;
8871;SDS011;4472;52.092;9.820;2022-12-20T06:22:57;19.03;;;12.37;;
8871;SDS011;4472;52.092;9.820;2022-12-20T06:25:45;17.27;;;12.30;;
8871;SDS011;4472;52.092;9.820;2022-12-20T06:28:34;17.77;;;12.77;;
8871;SDS011;4472;52.092;9.820;2022-12-20T06:31:26;25.70;;;14.90;;
8871;SDS011;4472;52.092;9.820;2022-12-20T06:34:14;63.80;;;33.13;;
8871;SDS011;4472;52.092;9.820;2022-12-20T06:37:01;59.30;;;32.97;;
8871;SDS011;4472;52.092;9.820;2022-12-20T06:39:49;17.57;;;12.73;;
8871;SDS011;4472;52.092;9.820;2022-12-20T06:42:36;26.13;;;16.83;;
8871;SDS011;4472;52.092;9.820;2022-12-20T06:45:25;23.33;;;15.50;;
8871;SDS011;4472;52.092;9.820;2022-12-20T06:48:13;20.73;;;14.30;;
8871;SDS011;4472;52.092;9.820;2022-12-20T06:51:00;35.93;;;22.20;;
8871;SDS011;4472;52.092;9.820;2022-12-20T06:53:47;21.93;;;14.43;;
8871;SDS011;4472;52.092;9.820;2022-12-20T06:56:35;21.40;;;14.97;;
8871;SDS011;4472;52.092;9.820;2022-12-20T06:59:22;17.90;;;12.90;;
8871;SDS011;4472;52.092;9.820;2022-12-20T07:02:12;19.07;;;12.97;;
8871;SDS011;4472;52.092;9.820;2022-12-20T07:05:00;17.50;;;12.17;;
8871;SDS011;4472;52.092;9.820;2022-12-20T07:07:47;16.30;;;11.27;;
8871;SDS011;4472;52.092;9.820;2022-12-20T07:10:35;18.53;;;11.50;;
8871;SDS011;4472;52.092;9.820;2022-12-20T07:13:23;19.10;;;12.63;;
8871;SDS011;4472;52.092;9.820;2022-12-20T07:16:11;17.60;;;11.63;;
8871;SDS011;4472;52.092;9.820;2022-12-20T07:19:00;19.07;;;11.47;;
8871;SDS011;4472;52.092;9.820;2022-12-20T07:21:48;16.10;;;11.43;;
8871;SDS011;4472;52.092;9.820;2022-12-20T07:24:35;18.30;;;14.93;;
8871;SDS011;4472;52.092;9.820;2022-12-20T07:27:23;17.40;;;11.73;;
8871;SDS011;4472;52.092;9.820;2022-12-20T07:30:11;18.43;;;12.50;;
8871;SDS011;4472;52.092;9.820;2022-12-20T07:32:59;19.07;;;11.53;;
8871;SDS011;4472;52.092;9.820;2022-12-20T07:35:48;18.63;;;12.50;;
8871;SDS011;4472;52.092;9.820;2022-12-20T07:38:35;16.93;;;12.47;;
8871;SDS011;4472;52.092;9.820;2022-12-20T07:41:23;17.93;;;11.73;;
8871;SDS011;4472;52.092;9.820;2022-12-20T07:44:10;18.27;;;12.60;;
8871;SDS011;4472;52.092;9.820;2022-12-20T07:46:58;18.70;;;11.53;;
8871;SDS011;4472;52.092;9.820;2022-12-20T07:49:45;17.27;;;11.60;;
8871;SDS011;4472;52.092;9.820;2022-12-20T07:52:35;17.53;;;11.23;;
8871;SDS011;4472;52.092;9.820;2022-12-20T07:55:23;17.00;;;11.60;;
8871;SDS011;4472;52.092;9.820;2022-12-20T07:58:11;19.43;;;11.87;;
8871;SDS011;4472;52.092;9.820;2022-12-20T08:00:59;15.77;;;11.27;;
8871;SDS011;4472;52.092;9.820;2022-12-20T08:03:50;16.57;;;11.60;;
8871;SDS011;4472;52.092;9.820;2022-12-20T08:06:39;15.27;;;11.10;;
8871;SDS011;4472;52.092;9.820;2022-12-20T08:09:29;17.03;;;11.00;;
8871;SDS011;4472;52.092;9.820;2022-12-20T08:12:17;15.00;;;9.87;;
8871;SDS011;4472;52.092;9.820;2022-12-20T08:15:06;16.47;;;10.17;;
8871;SDS011;4472;52.092;9.820;2022-12-20T08:17:54;13.97;;;9.40;;
8871;SDS011;4472;52.092;9.820;2022-12-20T08:20:41;15.43;;;9.73;;
8871;SDS011;4472;52.092;9.820;2022-12-20T08:23:29;14.33;;;9.73;;
8871;SDS011;4472;52.092;9.820;2022-12-20T08:26:18;13.13;;;9.40;;
8871;SDS011;4472;52.092;9.820;2022-12-20T08:29:05;12.40;;;8.73;;
8871;SDS011;4472;52.092;9.820;2022-12-20T08:31:53;13.60;;;9.50;;
8871;SDS011;4472;52.092;9.820;2022-12-20T08:34:40;12.87;;;8.63;;
8871;SDS011;4472;52.092;9.820;2022-12-20T08:37:28;14.47;;;8.87;;
8871;SDS011;4472;52.092;9.820;2022-12-20T08:40:15;10.93;;;7.80;;
8871;SDS011;4472;52.092;9.820;2022-12-20T08:43:04;11.70;;;8.20;;
8871;SDS011;4472;52.092;9.820;2022-12-20T08:45:52;10.07;;;7.83;;
8871;SDS011;4472;52.092;9.820;2022-12-20T08:48:39;11.13;;;8.53;;
8871;SDS011;4472;52.092;9.820;2022-12-20T08:51:27;9.70;;;8.17;;
8871;SDS011;4472;52.092;9.820;2022-12-20T08:54:14;13.47;;;8.70;;
8871;SDS011;4472;52.092;9.820;2022-12-20T08:57:02;12.37;;;8.43;;
8871;SDS011;4472;52.092;9.820;2022-12-20T08:59:51;14.07;;;8.70;;
8871;SDS011;4472;52.092;9.820;2022-12-20T09:02:39;12.17;;;8.50;;
8871;SDS011;4472;52.092;9.820;2022-12-20T09:05:26;13.53;;;8.57;;
8871;SDS011;4472;52.092;9.820;2022-12-20T09:08:14;9.07;;;7.67;;
8871;SDS011;4472;52.092;9.820;2022-12-20T09:11:02;11.63;;;7.77;;
8871;SDS011;4472;52.092;9.820;2022-12-20T09:13:51;11.50;;;7.47;;
8871;SDS011;4472;52.092;9.820;2022-12-20T09:16:40;11.30;;;7.93;;
8871;SDS011;4472;52.092;9.820;2022-12-20T09:19:27;12.67;;;7.90;;
8871;SDS011;4472;52.092;9.820;2022-12-20T09:22:15;9.23;;;7.50;;
8871;SDS011;4472;52.092;9.820;2022-12-20T09:25:03;9.67;;;7.47;;
8871;SDS011;4472;52.092;9.820;2022-12-20T09:27:51;12.03;;;7.43;;
8871;SDS011;4472;52.092;9.820;2022-12-20T09:30:39;11.10;;;7.30;;
8871;SDS011;4472;52.092;9.820;2022-12-20T09:33:28;10.97;;;6.93;;
8871;SDS011;4472;52.092;9.820;2022-12-20T09:36:16;11.60;;;7.57;;
8871;SDS011;4472;52.092;9.820;2022-12-20T09:39:05;8.50;;;7.40;;
8871;SDS011;4472;52.092;9.820;2022-12-20T09:41:52;10.30;;;7.23;;
8871;SDS011;4472;52.092;9.820;2022-12-20T09:44:40;9.60;;;7.37;;
8871;SDS011;4472;52.092;9.820;2022-12-20T09:47:28;10.30;;;6.77;;
8871;SDS011;4472;52.092;9.820;2022-12-20T09:50:17;9.20;;;6.63;;
8871;SDS011;4472;52.092;9.820;2022-12-20T09:53:10;8.50;;;6.47;;
8871;SDS011;4472;52.092;9.820;2022-12-20T09:56:02;10.23;;;6.60;;
8871;SDS011;4472;52.092;9.820;2022-12-20T09:58:56;9.53;;;6.70;;
8871;SDS011;4472;52.092;9.820;2022-12-20T10:01:44;10.33;;;7.03;;
8871;SDS011;4472;52.092;9.820;2022-12-20T10:04:32;7.83;;;6.20;;
8871;SDS011;4472;52.092;9.820;2022-12-20T10:07:25;8.00;;;6.30;;
8871;SDS011;4472;52.092;9.820;2022-12-20T10:10:31;10.73;;;6.93;;
8871;SDS011;4472;52.092;9.820;2022-12-20T10:13:24;9.77;;;6.60;;
8871;SDS011;4472;52.092;9.820;2022-12-20T10:16:17;10.77;;;6.80;;
8871;SDS011;4472;52.092;9.820;2022-12-20T10:19:12;10.53;;;6.70;;
8871;SDS011;4472;52.092;9.820;2022-12-20T10:22:03;10.03;;;6.30;;
8871;SDS011;4472;52.092;9.820;2022-12-20T10:24:57;8.57;;;6.30;;
8871;SDS011;4472;52.092;9.820;2022-12-20T10:27:46;8.70;;;5.63;;
8871;SDS011;4472;52.092;9.820;2022-12-20T10:30:33;8.67;;;6.03;;
8871;SDS011;4472;52.092;9.820;2022-12-20T10:33:22;7.73;;;5.50;;
8871;SDS011;4472;52.092;9.820;2022-12-20T10:36:16;8.70;;;5.67;;
8871;SDS011;4472;52.092;9.820;2022-12-20T10:39:04;7.30;;;5.50;;
8871;SDS011;4472;52.092;9.820;2022-12-20T10:41:54;9.40;;;5.30;;
8871;SDS011;4472;52.092;9.820;2022-12-20T10:44:41;9.53;;;5.73;;
8871;SDS011;4472;52.092;9.820;2022-12-20T10:47:33;8.47;;;5.87;;
8871;SDS011;4472;52.092;9.820;2022-12-20T10:50:23;7.83;;;5.97;;
8871;SDS011;4472;52.092;9.820;2022-12-20T10:53:20;9.53;;;5.80;;
8871;SDS011;4472;52.092;9.820;2022-12-20T10:56:11;6.83;;;5.77;;
8871;SDS011;4472;52.092;9.820;2022-12-20T10:59:01;6.57;;;5.73;;
8871;SDS011;4472;52.092;9.820;2022-12-20T11:01:49;7.57;;;6.20;;
8871;SDS011;4472;52.092;9.820;2022-12-20T11:04:37;6.80;;;5.57;;
8871;SDS011;4472;52.092;9.820;2022-12-20T11:07:25;7.03;;;5.60;;
8871;SDS011;4472;52.092;9.820;2022-12-20T11:10:16;7.77;;;5.73;;
8871;SDS011;4472;52.092;9.820;2022-12-20T11:13:04;7.70;;;5.50;;
8871;SDS011;4472;52.092;9.820;2022-12-20T11:15:54;7.77;;;5.57;;
8871;SDS011;4472;52.092;9.820;2022-12-20T11:18:47;7.40;;;5.33;;
8871;SDS011;4472;52.092;9.820;2022-12-20T11:21:40;8.97;;;5.30;;
8871;SDS011;4472;52.092;9.820;2022-12-20T11:24:30;7.43;;;5.40;;
8871;SDS011;4472;52.092;9.820;2022-12-20T11:27:21;8.03;;;5.23;;
8871;SDS011;4472;52.092;9.820;2022-12-20T11:30:14;6.30;;;4.97;;
8871;SDS011;4472;52.092;9.820;2022-12-20T11:33:09;8.47;;;4.93;;
8871;SDS011;4472;52.092;9.820;2022-12-20T11:36:02;6.87;;;4.97;;
8871;SDS011;4472;52.092;9.820;2022-12-20T11:38:52;6.77;;;5.27;;
8871;SDS011;4472;52.092;9.820;2022-12-20T11:41:44;6.00;;;4.80;;
8871;SDS011;4472;52.092;9.820;2022-12-20T11:44:41;6.03;;;4.60;;
8871;SDS011;4472;52.092;9.820;2022-12-20T11:47:43;7.40;;;4.70;;
8871;SDS011;4472;52.092;9.820;2022-12-20T11:50:39;6.03;;;4.67;;
8871;SDS011;4472;52.092;9.820;2022-12-20T11:53:30;5.90;;;4.90;;
8871;SDS011;4472;52.092;9.820;2022-12-20T11:56:19;6.00;;;4.60;;
8871;SDS011;4472;52.092;9.820;2022-12-20T11:59:09;6.50;;;4.67;;
8871;SDS011;4472;52.092;9.820;2022-12-20T12:01:59;5.97;;;4.47;;
8871;SDS011;4472;52.092;9.820;2022-12-20T12:04:49;5.63;;;4.03;;
8871;SDS011;4472;52.092;9.820;2022-12-20T12:07:42;8.17;;;4.60;;
8871;SDS011;4472;52.092;9.820;2022-12-20T12:10:30;5.77;;;4.10;;
8871;SDS011;4472;52.092;9.820;2022-12-20T12:13:22;5.13;;;4.63;;
8871;SDS011;4472;52.092;9.820;2022-12-20T12:16:11;6.53;;;4.13;;
8871;SDS011;4472;52.092;9.820;2022-12-20T12:18:59;5.43;;;3.97;;
8871;SDS011;4472;52.092;9.820;2022-12-20T12:21:48;5.30;;;4.20;;
8871;SDS011;4472;52.092;9.820;2022-12-20T12:24:39;6.73;;;5.13;;
8871;SDS011;4472;52.092;9.820;2022-12-20T12:27:28;4.90;;;4.40;;
8871;SDS011;4472;52.092;9.820;2022-12-20T12:30:16;4.27;;;3.60;;
8871;SDS011;4472;52.092;9.820;2022-12-20T12:33:04;5.57;;;4.20;;
8871;SDS011;4472;52.092;9.820;2022-12-20T12:45:19;4.83;;;4.13;;
8871;SDS011;4472;52.092;9.820;2022-12-20T12:48:11;5.83;;;4.40;;
8871;SDS011;4472;52.092;9.820;2022-12-20T12:51:00;5.00;;;4.40;;
8871;SDS011;4472;52.092;9.820;2022-12-20T12:53:48;5.63;;;4.10;;
8871;SDS011;4472;52.092;9.820;2022-12-20T12:56:37;6.67;;;4.03;;
8871;SDS011;4472;52.092;9.820;2022-12-20T13:02:49;5.57;;;4.03;;
8871;SDS011;4472;52.092;9.820;2022-12-20T13:05:37;5.97;;;4.17;;
8871;SDS011;4472;52.092;9.820;2022-12-20T13:08:24;6.10;;;4.20;;
8871;SDS011;4472;52.092;9.820;2022-12-20T13:11:33;4.70;;;3.97;;
8871;SDS011;4472;52.092;9.820;2022-12-20T13:17:48;5.43;;;4.07;;
8871;SDS011;4472;52.092;9.820;2022-12-20T13:20:36;7.30;;;4.00;;
8871;SDS011;4472;52.092;9.820;2022-12-20T13:23:24;7.13;;;4.47;;
8871;SDS011;4472;52.092;9.820;2022-12-20T13:29:23;5.00;;;3.90;;
8871;SDS011;4472;52.092;9.820;2022-12-20T13:35:28;5.17;;;3.60;;
8871;SDS011;4472;52.092;9.820;2022-12-20T13:38:38;6.13;;;3.90;;
8871;SDS011;4472;52.092;9.820;2022-12-20T13:41:38;5.23;;;3.90;;
8871;SDS011;4472;52.092;9.820;2022-12-20T13:44:39;4.30;;;3.70;;
8871;SDS011;4472;52.092;9.820;2022-12-20T13:47:36;5.97;;;3.60;;
8871;SDS011;4472;52.092;9.820;2022-12-20T13:50:28;4.70;;;3.60;;
8871;SDS011;4472;52.092;9.820;2022-12-20T13:53:17;7.30;;;5.13;;
8871;SDS011;4472;52.092;9.820;2022-12-20T13:56:19;7.83;;;5.93;;
8871;SDS011;4472;52.092;9.820;2022-12-20T13:59:11;6.90;;;4.67;;
8871;SDS011;4472;52.092;9.820;2022-12-20T14:02:02;8.13;;;3.83;;
8871;SDS011;4472;52.092;9.820;2022-12-20T14:04:52;5.57;;;4.00;;
8871;SDS011;4472;52.092;9.820;2022-12-20T14:07:45;5.07;;;3.83;;
8871;SDS011;4472;52.092;9.820;2022-12-20T14:10:34;4.30;;;3.57;;
8871;SDS011;4472;52.092;9.820;2022-12-20T14:13:22;7.13;;;3.60;;
8871;SDS011;4472;52.092;9.820;2022-12-20T14:16:13;6.23;;;3.40;;
8871;SDS011;4472;52.092;9.820;2022-12-20T14:19:01;6.80;;;3.40;;
8871;SDS011;4472;52.092;9.820;2022-12-20T14:21:49;6.33;;;3.43;;
8871;SDS011;4472;52.092;9.820;2022-12-20T14:24:39;4.30;;;3.47;;
8871;SDS011;4472;52.092;9.820;2022-12-20T14:27:27;5.03;;;3.10;;
8871;SDS011;4472;52.092;9.820;2022-12-20T14:30:26;4.37;;;3.60;;
8871;SDS011;4472;52.092;9.820;2022-12-20T14:33:17;4.17;;;3.60;;
8871;SDS011;4472;52.092;9.820;2022-12-20T14:36:07;4.30;;;3.50;;
8871;SDS011;4472;52.092;9.820;2022-12-20T14:38:54;7.43;;;3.57;;
8871;SDS011;4472;52.092;9.820;2022-12-20T14:41:43;5.07;;;3.60;;
8871;SDS011;4472;52.092;9.820;2022-12-20T14:44:31;5.97;;;3.23;;
8871;SDS011;4472;52.092;9.820;2022-12-20T14:47:20;4.83;;;3.60;;
8871;SDS011;4472;52.092;9.820;2022-12-20T14:50:15;4.80;;;3.20;;
8871;SDS011;4472;52.092;9.820;2022-12-20T14:53:03;6.07;;;3.30;;
8871;SDS011;4472;52.092;9.820;2022-12-20T14:56:01;5.40;;;3.20;;
8871;SDS011;4472;52.092;9.820;2022-12-20T14:59:01;4.53;;;3.30;;
8871;SDS011;4472;52.092;9.820;2022-12-20T15:01:49;5.97;;;3.60;;
8871;SDS011;4472;52.092;9.820;2022-12-20T15:04:37;7.00;;;3.80;;
8871;SDS011;4472;52.092;9.820;2022-12-20T15:07:28;6.47;;;3.43;;
8871;SDS011;4472;52.092;9.820;2022-12-20T15:10:16;4.53;;;3.50;;
8871;SDS011;4472;52.092;9.820;2022-12-20T15:13:06;4.43;;;3.33;;
8871;SDS011;4472;52.092;9.820;2022-12-20T15:15:56;4.87;;;3.43;;
8871;SDS011;4472;52.092;9.820;2022-12-20T15:18:44;4.90;;;3.30;;
8871;SDS011;4472;52.092;9.820;2022-12-20T15:21:31;3.80;;;3.17;;
8871;SDS011;4472;52.092;9.820;2022-12-20T15:24:20;6.57;;;3.67;;
8871;SDS011;4472;52.092;9.820;2022-12-20T15:27:11;4.27;;;3.60;;
8871;SDS011;4472;52.092;9.820;2022-12-20T15:29:58;4.50;;;3.90;;
8871;SDS011;4472;52.092;9.820;2022-12-20T15:32:47;4.17;;;3.33;;
8871;SDS011;4472;52.092;9.820;2022-12-20T15:35:35;5.27;;;3.20;;
8871;SDS011;4472;52.092;9.820;2022-12-20T15:38:23;4.73;;;3.53;;
8871;SDS011;4472;52.092;9.820;2022-12-20T15:41:12;4.60;;;3.60;;
8871;SDS011;4472;52.092;9.820;2022-12-20T15:44:02;5.97;;;3.70;;
8871;SDS011;4472;52.092;9.820;2022-12-20T15:46:50;4.63;;;3.30;;
8871;SDS011;4472;52.092;9.820;2022-12-20T15:49:39;4.63;;;3.30;;
8871;SDS011;4472;52.092;9.820;2022-12-20T15:52:26;5.53;;;3.60;;
8871;SDS011;4472;52.092;9.820;2022-12-20T15:55:14;4.97;;;3.40;;
8871;SDS011;4472;52.092;9.820;2022-12-20T15:58:01;4.93;;;3.70;;
8871;SDS011;4472;52.092;9.820;2022-12-20T16:00:49;4.87;;;3.60;;
8871;SDS011;4472;52.092;9.820;2022-12-20T16:03:37;4.80;;;3.30;;
8871;SDS011;4472;52.092;9.820;2022-12-20T16:06:26;3.80;;;3.43;;
8871;SDS011;4472;52.092;9.820;2022-12-20T16:09:14;5.20;;;3.53;;
8871;SDS011;4472;52.092;9.820;2022-12-20T16:12:02;4.43;;;3.70;;
8871;SDS011;4472;52.092;9.820;2022-12-20T16:14:50;6.57;;;3.60;;
8871;SDS011;4472;52.092;9.820;2022-12-20T16:17:37;4.90;;;3.47;;
8871;SDS011;4472;52.092;9.820;2022-12-20T16:20:24;6.70;;;3.50;;
8871;SDS011;4472;52.092;9.820;2022-12-20T16:23:16;6.23;;;3.90;;
8871;SDS011;4472;52.092;9.820;2022-12-20T16:26:04;4.47;;;3.33;;
8871;SDS011;4472;52.092;9.820;2022-12-20T16:28:53;5.50;;;3.30;;
8871;SDS011;4472;52.092;9.820;2022-12-20T16:31:41;7.03;;;4.03;;
8871;SDS011;4472;52.092;9.820;2022-12-20T16:34:29;3.90;;;3.50;;
8871;SDS011;4472;52.092;9.820;2022-12-20T16:37:16;6.13;;;3.77;;
8871;SDS011;4472;52.092;9.820;2022-12-20T16:40:06;6.97;;;4.10;;
8871;SDS011;4472;52.092;9.820;2022-12-20T16:42:54;5.90;;;4.00;;
8871;SDS011;4472;52.092;9.820;2022-12-20T16:45:41;4.73;;;3.80;;
8871;SDS011;4472;52.092;9.820;2022-12-20T16:48:29;7.30;;;4.27;;
8871;SDS011;4472;52.092;9.820;2022-12-20T16:51:23;6.37;;;4.03;;
8871;SDS011;4472;52.092;9.820;2022-12-20T16:54:11;5.30;;;4.47;;
8871;SDS011;4472;52.092;9.820;2022-12-20T16:57:01;5.60;;;4.10;;
8871;SDS011;4472;52.092;9.820;2022-12-20T16:59:48;8.47;;;6.00;;
8871;SDS011;4472;52.092;9.820;2022-12-20T17:02:35;9.77;;;6.60;;
8871;SDS011;4472;52.092;9.820;2022-12-20T17:05:24;13.40;;;8.07;;
8871;SDS011;4472;52.092;9.820;2022-12-20T17:08:12;12.03;;;8.07;;
8871;SDS011;4472;52.092;9.820;2022-12-20T17:11:00;31.07;;;14.30;;
8871;SDS011;4472;52.092;9.820;2022-12-20T17:13:50;29.20;;;15.03;;
8871;SDS011;4472;52.092;9.820;2022-12-20T17:16:38;21.73;;;11.83;;
8871;SDS011;4472;52.092;9.820;2022-12-20T17:19:26;34.53;;;18.10;;
8871;SDS011;4472;52.092;9.820;2022-12-20T17:22:13;28.83;;;15.70;;
8871;SDS011;4472;52.092;9.820;2022-12-20T17:25:04;20.83;;;12.73;;
8871;SDS011;4472;52.092;9.820;2022-12-20T17:27:51;13.97;;;8.90;;
8871;SDS011;4472;52.092;9.820;2022-12-20T17:30:41;16.57;;;10.00;;
8871;SDS011;4472;52.092;9.820;2022-12-20T17:33:29;16.20;;;10.50;;
8871;SDS011;4472;52.092;9.820;2022-12-20T17:36:16;11.50;;;6.73;;
8871;SDS011;4472;52.092;9.820;2022-12-20T17:39:03;7.57;;;5.60;;
8871;SDS011;4472;52.092;9.820;2022-12-20T17:41:51;5.63;;;5.00;;